Time;durP1;ratioP1;P1;durP2;ratioP2;P2;SDS_P1;SDS_P2;PMS_P1;PMS_P2;Temp;Humidity;BMP_temperature;BMP_pressure;BME280_temperature;BME280_humidity;BME280_pressure;Samples;Min_cycle;Max_cycle;Signal;HPM_P1;HPM_P2
2023/07/10 01:28:28;;;;;;;9.60;7.22;;;17.60;1.00;;;;;;5106422;23;20228;-85
2023/07/10 02:22:58;;;;;;;8.10;5.60;;;17.40;1.00;;;;;;4982826;28;20212;-92
2023/07/10 02:25:25;;;;;;;6.68;5.20;;;17.40;1.00;;;;;;4980419;28;20200;-91
2023/07/10 02:27:52;;;;;;;7.28;5.90;;;17.30;1.00;;;;;;4988867;28;20195;-90
2023/07/10 02:30:19;;;;;;;9.50;6.72;;;17.30;1.00;;;;;;4985488;28;20243;-88
2023/07/10 02:32:46;;;;;;;8.23;6.63;;;17.30;99.90;;;;;;4978517;28;20331;-90
2023/07/10 02:35:13;;;;;;;10.45;6.70;;;17.20;99.90;;;;;;4979253;28;20218;-91
2023/07/10 02:37:40;;;;;;;10.27;6.78;;;17.20;99.90;;;;;;4979974;28;20287;-92
2023/07/10 02:40:09;;;;;;;11.68;6.93;;;17.20;1.00;;;;;;4977267;28;20701;-92
2023/07/10 02:42:36;;;;;;;16.95;7.72;;;17.10;1.00;;;;;;4984882;28;20260;-89
2023/07/10 02:45:04;;;;;;;10.30;7.38;;;17.00;1.00;;;;;;4986047;28;20239;-90
2023/07/10 02:47:31;;;;;;;9.05;7.03;;;17.00;1.00;;;;;;4982238;28;20200;-93
2023/07/10 02:49:58;;;;;;;11.32;7.30;;;16.90;1.00;;;;;;4979760;28;20243;-92
2023/07/10 02:52:25;;;;;;;10.90;7.45;;;16.90;2.00;;;;;;4980339;28;20203;-91
2023/07/10 02:54:52;;;;;;;12.10;7.25;;;16.80;76.90;;;;;;4982188;28;20239;-92
2023/07/10 02:57:20;;;;;;;9.30;6.75;;;16.80;99.90;;;;;;4977708;28;20254;-91
2023/07/10 02:59:47;;;;;;;10.82;6.28;;;16.70;99.90;;;;;;4990303;28;20603;-91
2023/07/10 03:02:14;;;;;;;11.25;7.25;;;16.70;99.90;;;;;;4989051;28;20214;-91
2023/07/10 03:04:41;;;;;;;10.75;6.32;;;16.80;99.90;;;;;;4983798;28;20327;-91
2023/07/10 03:07:08;;;;;;;11.52;6.68;;;16.80;99.90;;;;;;4979600;28;20207;-92
2023/07/10 03:09:35;;;;;;;8.35;6.30;;;16.80;70.80;;;;;;4986826;28;20195;-90
2023/07/10 03:12:02;;;;;;;10.07;6.55;;;16.80;1.00;;;;;;4979421;28;20210;-89
2023/07/10 03:14:30;;;;;;;10.63;7.32;;;16.70;1.00;;;;;;4983520;28;20210;-90
2023/07/10 03:16:59;;;;;;;12.48;6.80;;;16.70;99.90;;;;;;4978333;28;20245;-90
2023/07/10 03:19:28;;;;;;;12.10;6.90;;;16.80;99.90;;;;;;4978186;28;20240;-90
2023/07/10 03:21:55;;;;;;;15.73;7.65;;;16.80;99.90;;;;;;4979079;28;20644;-92
2023/07/10 03:24:22;;;;;;;8.60;6.30;;;16.80;99.90;;;;;;4978361;28;20200;-89
2023/07/10 03:26:49;;;;;;;10.60;6.80;;;16.90;99.90;;;;;;4978433;28;20204;-92
2023/07/10 03:29:17;;;;;;;11.82;6.93;;;16.90;99.90;;;;;;4978041;28;20204;-89
2023/07/10 03:31:45;;;;;;;10.05;6.43;;;16.90;68.60;;;;;;4979778;28;20305;-91
2023/07/10 03:34:13;;;;;;;10.43;6.20;;;16.90;1.00;;;;;;4977636;28;20223;-89
2023/07/10 03:36:41;;;;;;;9.18;6.38;;;16.90;1.00;;;;;;4982317;28;20200;-91
2023/07/10 03:39:08;;;;;;;11.70;6.10;;;17.00;1.00;;;;;;4983515;28;20222;-93
2023/07/10 03:41:35;;;;;;;14.15;6.63;;;17.00;1.00;;;;;;4981226;28;20199;-90
2023/07/10 03:44:03;;;;;;;7.03;6.20;;;17.00;1.00;;;;;;4982444;28;20200;-91
2023/07/10 03:46:30;;;;;;;11.45;6.00;;;17.10;1.00;;;;;;4978695;28;20228;-90
2023/07/10 03:48:59;;;;;;;8.95;5.88;;;17.10;1.00;;;;;;4981859;28;20568;-90
2023/07/10 03:51:26;;;;;;;6.45;5.75;;;17.10;1.00;;;;;;4977693;28;20199;-91
2023/07/10 03:53:53;;;;;;;7.78;5.43;;;17.10;1.00;;;;;;4981029;28;20211;-88
2023/07/10 03:56:20;;;;;;;7.75;5.32;;;17.20;1.00;;;;;;4979738;28;20206;-91
2023/07/10 03:58:47;;;;;;;8.20;5.18;;;17.10;99.90;;;;;;4978663;28;20580;-91
2023/07/10 04:01:15;;;;;;;6.45;4.88;;;17.20;99.90;;;;;;4978085;28;20229;-91
2023/07/10 04:03:42;;;;;;;5.57;4.78;;;17.30;99.90;;;;;;4978278;28;20205;-91
2023/07/10 04:06:14;;;;;;;6.50;4.57;;;17.40;1.00;;;;;;4980524;28;20195;-90
2023/07/10 04:08:42;;;;;;;7.05;5.13;;;17.50;1.00;;;;;;4981290;28;20620;-91
2023/07/10 04:11:13;;;;;;;10.02;4.78;;;17.80;1.00;;;;;;4973943;28;20199;-91
2023/07/10 04:13:40;;;;;;;7.85;4.60;;;18.00;1.00;;;;;;4979390;28;20696;-93
2023/07/10 04:16:12;;;;;;;8.02;4.90;;;18.20;1.00;;;;;;4978579;28;20195;-91
2023/07/10 04:18:41;;;;;;;8.60;5.28;;;18.40;99.90;;;;;;4978188;28;20219;-90
2023/07/10 04:21:14;;;;;;;9.63;4.70;;;18.50;99.90;;;;;;4983263;28;20246;-92
2023/07/10 04:23:42;;;;;;;5.80;4.68;;;18.60;99.90;;;;;;4978751;28;20211;-91
2023/07/10 04:26:15;;;;;;;10.93;5.75;;;18.70;99.90;;;;;;4976720;28;20196;-92
2023/07/10 04:28:42;;;;;;;6.40;5.40;;;18.80;99.90;;;;;;4980281;28;20187;-92
2023/07/10 04:31:09;;;;;;;10.98;5.28;;;18.80;99.90;;;;;;4982508;28;20192;-87
2023/07/10 04:33:36;;;;;;;7.88;4.53;;;18.80;1.00;;;;;;4978107;28;20231;-91
2023/07/10 04:36:04;;;;;;;6.68;3.97;;;18.80;1.00;;;;;;4979576;28;20230;-91
2023/07/10 04:38:32;;;;;;;5.47;3.85;;;18.80;99.90;;;;;;4977299;28;20223;-92
2023/07/10 04:41:01;;;;;;;4.53;3.45;;;18.90;1.00;;;;;;4991612;28;20204;-90
2023/07/10 04:43:31;;;;;;;4.78;3.75;;;19.00;1.00;;;;;;4976649;28;20266;-92
2023/07/10 04:46:00;;;;;;;4.38;3.67;;;19.10;1.00;;;;;;4980590;28;20231;-90
2023/07/10 04:48:28;;;;;;;6.63;4.13;;;19.20;1.00;;;;;;4975581;28;20204;-90
2023/07/10 04:50:56;;;;;;;5.22;3.80;;;19.40;1.00;;;;;;4979390;28;20199;-92
2023/07/10 04:53:24;;;;;;;4.65;3.83;;;19.60;1.00;;;;;;4982768;28;20200;-91
2023/07/10 04:55:53;;;;;;;4.60;3.92;;;19.90;1.00;;;;;;4990353;28;20227;-92
2023/07/10 04:58:23;;;;;;;4.80;4.05;;;20.30;99.90;;;;;;4979102;28;20273;-92
2023/07/10 05:00:53;;;;;;;5.00;4.15;;;20.60;99.90;;;;;;4983792;28;20268;-92
2023/07/10 05:03:20;;;;;;;7.18;3.75;;;20.70;93.30;;;;;;4982364;28;20239;-90
2023/07/10 05:05:52;;;;;;;5.97;4.35;;;20.80;1.00;;;;;;4982472;28;20196;-89
2023/07/10 05:08:21;;;;;;;5.22;3.92;;;20.80;1.00;;;;;;4981137;28;20633;-90
2023/07/10 05:10:50;;;;;;;8.60;4.18;;;20.90;1.00;;;;;;4979934;28;20282;-93
2023/07/10 05:13:19;;;;;;;5.80;4.10;;;20.80;1.00;;;;;;4976156;28;20650;-91
2023/07/10 05:15:46;;;;;;;4.53;4.00;;;20.80;1.00;;;;;;4982221;28;20195;-93
2023/07/10 05:18:14;;;;;;;6.40;3.63;;;20.80;1.00;;;;;;4983339;28;20735;-90
2023/07/10 05:20:45;;;;;;;6.35;4.10;;;20.80;1.00;;;;;;4982581;28;20632;-90
2023/07/10 05:23:12;;;;;;;6.95;3.92;;;20.90;1.00;;;;;;4982664;28;20266;-90
2023/07/10 05:25:39;;;;;;;5.20;4.30;;;21.00;1.00;;;;;;4982694;28;20264;-90
2023/07/10 05:28:06;;;;;;;5.43;4.00;;;21.10;1.00;;;;;;4986660;28;20204;-92
2023/07/10 05:30:36;;;;;;;4.32;3.72;;;21.20;1.00;;;;;;4976278;28;20246;-91
2023/07/10 05:33:04;;;;;;;6.22;3.83;;;21.30;1.00;;;;;;4976431;28;20235;-91
2023/07/10 05:35:31;;;;;;;4.07;3.63;;;21.30;1.00;;;;;;4977453;28;20192;-89
2023/07/10 05:37:57;;;;;;;7.90;3.97;;;21.30;1.00;;;;;;4984764;28;20265;-93
2023/07/10 05:40:25;;;;;;;5.43;3.72;;;21.30;1.00;;;;;;4979167;28;20214;-91
2023/07/10 05:42:51;;;;;;;5.88;3.70;;;21.30;1.00;;;;;;4976142;28;20203;-91
2023/07/10 05:45:18;;;;;;;6.15;4.05;;;21.30;1.00;;;;;;4976608;28;20200;-93
2023/07/10 05:47:47;;;;;;;4.78;3.95;;;21.30;1.00;;;;;;4976619;28;20250;-91
2023/07/10 05:50:14;;;;;;;5.13;3.70;;;21.30;1.00;;;;;;4976871;28;20207;-89
2023/07/10 05:52:40;;;;;;;6.35;3.85;;;21.40;1.00;;;;;;4975265;28;20611;-92
2023/07/10 05:55:08;;;;;;;6.22;3.60;;;21.40;1.00;;;;;;4978450;28;20196;-90
2023/07/10 05:57:35;;;;;;;4.78;3.55;;;21.50;1.00;;;;;;4989797;28;20740;-89
2023/07/10 06:00:02;;;;;;;4.78;3.67;;;21.60;1.00;;;;;;4986946;28;20275;-92
2023/07/10 06:02:29;;;;;;;6.60;3.80;;;21.70;1.00;;;;;;4977513;28;20614;-91
2023/07/10 06:04:57;;;;;;;6.22;3.45;;;21.90;1.00;;;;;;4976083;28;20258;-90
2023/07/10 06:07:24;;;;;;;5.20;4.00;;;22.10;1.00;;;;;;4975880;28;20200;-92
2023/07/10 06:09:51;;;;;;;5.07;3.80;;;22.30;1.00;;;;;;4975154;28;20768;-94
2023/07/10 06:12:18;;;;;;;6.50;3.50;;;22.40;1.00;;;;;;4975618;28;20204;-91
2023/07/10 06:14:45;;;;;;;6.70;3.67;;;22.50;1.00;;;;;;4986789;28;20257;-93
2023/07/10 06:17:12;;;;;;;6.13;4.25;;;22.60;1.00;;;;;;4994115;28;20203;-93
2023/07/10 06:19:39;;;;;;;6.65;3.90;;;22.70;1.00;;;;;;4980344;28;20752;-92
2023/07/10 06:22:09;;;;;;;4.63;3.38;;;22.90;1.00;;;;;;4975768;28;20290;-91
2023/07/10 06:24:36;;;;;;;4.78;3.55;;;23.10;1.00;;;;;;4975968;28;20682;-93
2023/07/10 06:27:03;;;;;;;6.00;3.70;;;23.40;1.00;;;;;;4975757;28;20339;-93
2023/07/10 06:29:32;;;;;;;4.80;3.45;;;23.60;1.00;;;;;;4976007;28;20192;-94
2023/07/10 06:31:59;;;;;;;4.05;3.60;;;23.70;1.00;;;;;;4992016;28;20594;-91
2023/07/10 06:34:26;;;;;;;5.95;3.65;;;23.60;1.00;;;;;;4982475;28;20266;-90
2023/07/10 06:36:53;;;;;;;6.80;3.45;;;23.60;99.90;;;;;;4981754;28;20212;-90
2023/07/10 06:39:21;;;;;;;4.43;3.42;;;23.50;99.90;;;;;;4990174;28;20222;-91
2023/07/10 06:41:49;;;;;;;6.38;3.50;;;23.50;99.90;;;;;;4989437;28;20257;-89
2023/07/10 06:44:16;;;;;;;4.45;3.55;;;23.60;99.90;;;;;;4975102;28;20212;-91
2023/07/10 06:46:43;;;;;;;4.97;3.30;;;23.80;99.90;;;;;;4988980;28;20245;-92
2023/07/10 06:49:10;;;;;;;4.88;3.78;;;24.20;99.90;;;;;;4974588;28;20621;-91
2023/07/10 06:51:37;;;;;;;4.80;3.47;;;24.50;99.90;;;;;;4974256;28;20203;-90
2023/07/10 06:54:04;;;;;;;8.38;3.67;;;24.60;99.90;;;;;;4978032;28;20208;-90
2023/07/10 06:56:33;;;;;;;5.68;3.38;;;24.60;99.90;;;;;;4983632;28;20200;-92
2023/07/10 06:59:00;;;;;;;4.03;3.38;;;24.60;99.90;;;;;;4974928;28;20207;-93
2023/07/10 07:01:27;;;;;;;5.80;3.42;;;24.80;99.90;;;;;;4978479;28;20199;-93
2023/07/10 07:03:54;;;;;;;9.18;3.85;;;25.00;99.90;;;;;;4977046;28;20257;-91
2023/07/10 07:06:21;;;;;;;9.98;3.42;;;25.30;99.90;;;;;;4974644;28;20207;-89
2023/07/10 07:08:49;;;;;;;13.30;3.95;;;25.70;99.90;;;;;;4972424;28;20258;-90
2023/07/10 07:11:17;;;;;;;8.93;3.78;;;26.00;99.90;;;;;;4978873;28;20208;-89
2023/07/10 07:13:46;;;;;;;5.22;3.15;;;26.40;99.90;;;;;;4979318;28;20195;-90
2023/07/10 07:16:13;;;;;;;3.72;3.33;;;26.70;99.90;;;;;;4972874;28;22213;-92
2023/07/10 07:18:40;;;;;;;6.60;3.78;;;26.90;99.90;;;;;;4978813;28;20661;-92
2023/07/10 07:21:07;;;;;;;3.80;3.40;;;27.00;99.90;;;;;;4982909;28;20285;-90
2023/07/10 07:23:34;;;;;;;3.85;3.40;;;26.90;99.90;;;;;;4982152;28;20274;-92
2023/07/10 07:26:01;;;;;;;5.25;3.35;;;26.70;99.90;;;;;;4974225;28;20207;-91
2023/07/10 07:28:28;;;;;;;9.05;4.47;;;26.60;99.90;;;;;;4982737;28;20199;-92
2023/07/10 07:31:04;;;;;;;5.72;3.67;;;26.60;99.90;;;;;;4974498;28;20226;-90
2023/07/10 07:33:31;;;;;;;5.90;3.90;;;26.70;99.90;;;;;;4980210;28;20667;-92
2023/07/10 07:36:00;;;;;;;4.20;3.80;;;26.70;99.90;;;;;;4974047;28;20285;-89
2023/07/10 07:38:27;;;;;;;7.15;3.80;;;26.80;99.90;;;;;;4973980;28;20199;-91
2023/07/10 07:40:54;;;;;;;5.75;3.40;;;26.90;99.90;;;;;;4972996;28;20219;-92
2023/07/10 07:43:21;;;;;;;5.97;3.47;;;27.20;99.90;;;;;;4972529;28;20196;-91
2023/07/10 07:45:52;;;;;;;4.82;3.30;;;27.50;99.90;;;;;;4979386;28;20628;-90
2023/07/10 07:48:20;;;;;;;4.45;3.40;;;27.80;99.90;;;;;;4982288;28;20257;-92
2023/07/10 07:50:58;;;;;;;7.55;3.88;;;28.20;99.90;;;;;;4982905;28;20565;-91
2023/07/10 07:53:25;;;;;;;5.63;3.90;;;28.50;99.90;;;;;;4988050;28;20203;-89
2023/07/10 07:55:52;;;;;;;6.60;4.03;;;28.80;99.90;;;;;;4992067;28;20677;-94
2023/07/10 07:58:19;;;;;;;6.63;3.90;;;28.90;99.90;;;;;;4974773;28;20196;-93
2023/07/10 08:00:46;;;;;;;5.97;3.10;;;29.30;99.90;;;;;;4979386;28;20285;-91
2023/07/10 08:03:14;;;;;;;5.82;3.47;;;29.60;99.90;;;;;;4979661;28;20231;-92
2023/07/10 08:05:42;;;;;;;4.25;3.30;;;29.90;99.90;;;;;;4977569;28;20250;-92
2023/07/10 08:08:10;;;;;;;4.65;3.47;;;30.00;99.90;;;;;;4979717;28;20204;-94
2023/07/10 08:10:43;;;;;;;7.20;3.70;;;30.10;99.90;;;;;;4981084;28;20227;-90
2023/07/10 08:13:11;;;;;;;9.77;3.67;;;30.20;99.90;;;;;;4972958;28;20199;-91
2023/07/10 08:15:39;;;;;;;7.60;4.10;;;30.30;99.90;;;;;;4975315;28;20196;-91
2023/07/10 08:18:06;;;;;;;6.22;4.07;;;30.40;99.90;;;;;;4984715;28;20748;-92
2023/07/10 08:20:33;;;;;;;9.30;3.80;;;30.50;99.90;;;;;;4978298;28;20215;-92
2023/07/10 08:23:04;;;;;;;7.80;3.80;;;30.50;99.90;;;;;;4976329;28;20677;-91
2023/07/10 08:25:31;;;;;;;7.90;4.07;;;30.60;99.90;;;;;;4978748;28;20199;-92
2023/07/10 08:27:59;;;;;;;5.13;3.72;;;30.60;99.90;;;;;;4978693;28;20204;-92
2023/07/10 08:30:26;;;;;;;6.25;4.07;;;30.60;99.90;;;;;;4981138;28;20238;-91
2023/07/10 08:32:53;;;;;;;5.45;3.90;;;30.60;99.90;;;;;;4988779;28;20737;-90
2023/07/10 08:35:21;;;;;;;4.63;3.65;;;30.40;99.90;;;;;;4984368;28;20238;-93
2023/07/10 08:37:49;;;;;;;9.65;3.55;;;30.20;99.90;;;;;;4987539;28;20222;-91
2023/07/10 08:40:26;;;;;;;7.20;3.85;;;29.80;99.90;;;;;;4983442;28;20250;-94
2023/07/10 08:42:53;;;;;;;5.78;3.97;;;29.60;99.90;;;;;;4977642;28;20258;-91
2023/07/10 08:45:29;;;;;;;20.38;3.90;;;29.40;99.90;;;;;;4976758;28;20727;-92
2023/07/10 08:48:05;;;;;;;10.85;3.78;;;29.30;99.90;;;;;;4979196;28;20203;-93
2023/07/10 08:50:32;;;;;;;8.27;3.65;;;29.10;99.90;;;;;;4977698;28;20195;-92
2023/07/10 08:53:06;;;;;;;7.50;3.35;;;28.80;99.90;;;;;;4988371;28;20230;-90
2023/07/10 08:55:45;;;;;;;12.20;4.10;;;28.70;99.90;;;;;;4978009;28;20255;-93
2023/07/10 08:58:22;;;;;;;5.88;3.20;;;28.50;99.90;;;;;;4983737;28;20627;-92
2023/07/10 09:00:54;;;;;;;5.35;3.38;;;28.40;99.90;;;;;;4982401;28;20274;-91
2023/07/10 09:03:40;;;;;;;5.20;3.17;;;28.30;99.90;;;;;;4976287;28;20200;-91
2023/07/10 09:06:16;;;;;;;3.92;3.00;;;28.20;99.90;;;;;;4976771;28;20196;-93
2023/07/10 09:08:47;;;;;;;4.30;3.08;;;28.00;99.90;;;;;;4977534;28;20235;-93
2023/07/10 09:11:16;;;;;;;5.45;3.10;;;27.80;99.90;;;;;;4987044;28;20253;-94
2023/07/10 09:13:50;;;;;;;5.25;2.95;;;27.70;99.90;;;;;;4980428;28;20405;-93
2023/07/10 09:16:19;;;;;;;3.88;3.30;;;27.50;99.90;;;;;;4976929;28;20258;-91
2023/07/10 09:18:49;;;;;;;6.68;3.53;;;27.30;99.90;;;;;;4979043;28;20225;-92
2023/07/10 09:21:19;;;;;;;3.85;3.25;;;27.10;99.90;;;;;;4980248;28;20224;-91
2023/07/10 09:23:47;;;;;;;3.65;3.28;;;27.00;99.90;;;;;;4987410;28;20196;-92
2023/07/10 09:26:18;;;;;;;4.65;3.50;;;27.10;99.90;;;;;;4981636;28;20246;-94
2023/07/10 09:29:00;;;;;;;3.45;3.15;;;27.30;99.90;;;;;;4983997;28;20278;-92
2023/07/10 09:31:40;;;;;;;5.57;3.50;;;27.60;99.90;;;;;;4976305;28;20204;-91
2023/07/10 09:34:10;;;;;;;5.38;3.22;;;27.80;99.90;;;;;;4989557;28;20202;-91
2023/07/10 09:36:37;;;;;;;5.00;3.10;;;28.00;99.90;;;;;;4982925;28;20195;-92
2023/07/10 09:39:05;;;;;;;6.38;3.33;;;28.20;99.90;;;;;;4975357;28;20199;-90
2023/07/10 09:41:38;;;;;;;5.88;3.45;;;28.30;99.90;;;;;;4975520;28;20216;-92
2023/07/10 09:44:16;;;;;;;6.22;4.20;;;28.30;99.90;;;;;;4987902;28;20199;-91
2023/07/10 09:46:43;;;;;;;5.13;4.00;;;28.30;99.90;;;;;;4974331;28;20199;-91
2023/07/10 09:49:13;;;;;;;7.10;3.65;;;28.40;99.90;;;;;;4973614;28;20262;-91
2023/07/10 09:51:54;;;;;;;4.35;3.58;;;28.60;99.90;;;;;;4974695;28;20243;-91
2023/07/10 09:54:21;;;;;;;7.93;4.75;;;28.60;99.90;;;;;;4979391;28;20195;-93
2023/07/10 09:56:52;;;;;;;6.43;4.68;;;28.70;99.90;;;;;;4978766;28;20654;-88
2023/07/10 09:59:21;;;;;;;5.28;3.10;;;28.70;99.90;;;;;;4981246;28;20230;-94
2023/07/10 10:01:50;;;;;;;6.55;3.58;;;28.70;99.90;;;;;;4974145;28;20628;-90
2023/07/10 10:04:21;;;;;;;11.02;4.43;;;28.70;99.90;;;;;;4976587;28;20552;-92
2023/07/10 10:06:56;;;;;;;7.97;4.35;;;28.80;99.90;;;;;;4974247;28;20231;-90
2023/07/10 10:09:27;;;;;;;4.60;3.25;;;29.00;99.90;;;;;;4978155;28;20274;-90
2023/07/10 10:12:02;;;;;;;5.45;3.20;;;29.10;99.90;;;;;;4974682;28;20214;-89
2023/07/10 10:14:40;;;;;;;5.60;2.85;;;29.30;99.90;;;;;;4972478;28;20331;-92
2023/07/10 10:17:10;;;;;;;4.40;3.08;;;29.50;99.90;;;;;;4972956;28;20235;-92
2023/07/10 10:19:42;;;;;;;6.40;3.60;;;29.60;99.90;;;;;;4985989;28;20249;-89
2023/07/10 10:22:11;;;;;;;4.53;3.33;;;29.80;99.90;;;;;;4973689;28;20314;-91
2023/07/10 10:24:38;;;;;;;3.55;3.17;;;30.20;99.90;;;;;;4973830;28;20665;-91
2023/07/10 10:27:17;;;;;;;7.57;3.10;;;30.40;99.90;;;;;;4975830;28;20675;-90
2023/07/10 10:30:04;;;;;;;6.68;3.17;;;30.40;99.90;;;;;;4974197;28;20278;-90
2023/07/10 10:32:38;;;;;;;8.10;3.30;;;30.50;99.90;;;;;;4973124;28;20207;-91
2023/07/10 10:35:15;;;;;;;4.78;3.38;;;30.60;99.90;;;;;;4972999;28;20215;-92
2023/07/10 10:37:56;;;;;;;3.53;2.92;;;30.60;99.90;;;;;;4971102;28;20281;-91
2023/07/10 10:40:34;;;;;;;3.63;2.97;;;30.60;99.90;;;;;;4973878;28;20208;-90
2023/07/10 10:43:34;;;;;;;5.07;2.85;;;30.70;99.90;;;;;;4974390;28;20262;-89
2023/07/10 10:46:08;;;;;;;4.35;3.00;;;30.80;99.90;;;;;;4973303;28;20900;-91
2023/07/10 10:48:43;;;;;;;4.57;3.70;;;30.70;99.90;;;;;;4974868;28;20579;-90
2023/07/10 10:51:24;;;;;;;5.13;3.45;;;30.70;99.90;;;;;;4975760;28;20249;-91
2023/07/10 10:54:02;;;;;;;5.47;3.20;;;30.70;99.90;;;;;;4973224;28;20274;-91
2023/07/10 10:56:35;;;;;;;5.45;3.15;;;30.80;99.90;;;;;;4967646;28;20293;-91
2023/07/10 10:59:25;;;;;;;5.30;3.63;;;31.00;99.90;;;;;;4972499;28;20191;-91
2023/07/10 11:02:00;;;;;;;5.32;3.42;;;31.10;99.90;;;;;;4970008;28;20219;-89
2023/07/10 11:04:33;;;;;;;5.03;3.80;;;31.30;99.90;;;;;;4974683;28;20230;-90
2023/07/10 11:07:05;;;;;;;4.05;3.25;;;31.30;99.90;;;;;;4972520;28;20263;-91
2023/07/10 11:09:36;;;;;;;5.63;3.50;;;31.40;99.90;;;;;;4970909;28;20234;-91
2023/07/10 11:12:04;;;;;;;6.25;3.33;;;31.40;99.90;;;;;;4972421;28;20223;-90
2023/07/10 11:14:33;;;;;;;5.05;3.38;;;31.50;99.90;;;;;;4972085;28;20250;-91
2023/07/10 11:17:00;;;;;;;3.78;3.20;;;31.60;99.90;;;;;;4978815;28;20196;-92
2023/07/10 11:19:29;;;;;;;4.68;3.15;;;31.60;99.90;;;;;;4970107;28;20207;-92
2023/07/10 11:21:57;;;;;;;5.32;3.17;;;31.70;99.90;;;;;;4971939;28;20321;-89
2023/07/10 11:24:34;;;;;;;6.00;3.20;;;31.80;99.90;;;;;;4970864;28;20207;-88
2023/07/10 11:27:10;;;;;;;5.40;3.10;;;31.90;99.90;;;;;;4974484;28;20258;-88
2023/07/10 11:29:41;;;;;;;3.50;3.20;;;32.00;99.90;;;;;;4976255;28;20293;-88
2023/07/10 11:32:17;;;;;;;3.95;3.30;;;32.10;99.90;;;;;;4971802;28;20582;-89
2023/07/10 11:34:54;;;;;;;3.97;3.42;;;32.10;99.90;;;;;;4968725;28;20199;-88
2023/07/10 11:38:02;;;;;;;3.45;3.08;;;31.90;99.40;;;;;;4974122;28;20195;-88
2023/07/10 11:41:09;;;;;;;3.88;3.03;;;31.90;98.40;;;;;;4916293;28;20227;-88
2023/07/10 11:43:54;;;;;;;5.70;2.80;;;31.90;97.80;;;;;;4871762;29;20606;-88
2023/07/10 11:46:34;;;;;;;4.15;3.20;;;32.00;96.80;;;;;;4856038;29;20647;-88
2023/07/10 11:49:17;;;;;;;6.80;3.88;;;32.10;95.60;;;;;;4864789;29;20206;-89
2023/07/10 11:52:05;;;;;;;4.38;3.58;;;32.10;94.20;;;;;;4855159;29;20544;-88
2023/07/10 11:54:41;;;;;;;6.00;3.40;;;32.10;94.60;;;;;;4858078;29;20237;-87
2023/07/10 11:57:14;;;;;;;5.07;3.22;;;32.00;91.00;;;;;;4853414;29;20259;-89
2023/07/10 11:59:48;;;;;;;4.57;3.30;;;32.10;92.50;;;;;;4864055;29;20299;-88
2023/07/10 12:02:31;;;;;;;3.85;3.00;;;32.10;90.80;;;;;;4861193;29;20258;-88
2023/07/10 12:05:04;;;;;;;6.70;3.10;;;32.00;90.30;;;;;;4864645;29;20230;-88
2023/07/10 12:07:31;;;;;;;4.97;3.25;;;32.00;90.00;;;;;;4870137;29;20207;-88
2023/07/10 12:09:59;;;;;;;3.88;3.47;;;32.10;91.00;;;;;;4864832;29;20239;-88
2023/07/10 12:12:31;;;;;;;3.92;3.40;;;32.10;92.90;;;;;;4860436;29;20200;-88
2023/07/10 12:15:01;;;;;;;6.65;3.40;;;32.20;92.90;;;;;;4864178;29;20703;-89
2023/07/10 12:17:32;;;;;;;5.80;3.55;;;32.30;92.50;;;;;;4939113;28;20203;-89
2023/07/10 12:20:03;;;;;;;6.20;3.65;;;32.40;93.30;;;;;;4974185;28;20227;-89
2023/07/10 12:22:36;;;;;;;5.03;3.60;;;32.50;91.50;;;;;;4972079;28;20215;-90
2023/07/10 12:25:11;;;;;;;6.72;3.65;;;32.50;99.90;;;;;;4971446;28;20204;-89
2023/07/10 12:27:38;;;;;;;4.20;3.78;;;32.60;91.40;;;;;;4978441;28;20229;-90
2023/07/10 12:30:14;;;;;;;5.38;3.70;;;32.70;91.10;;;;;;4971377;28;20207;-89
2023/07/10 12:32:43;;;;;;;7.65;4.63;;;32.80;88.80;;;;;;4971781;28;20231;-90
2023/07/10 12:35:16;;;;;;;5.20;4.00;;;32.90;90.30;;;;;;4972623;28;20234;-90
2023/07/10 12:37:47;;;;;;;5.13;3.92;;;32.90;86.70;;;;;;4975807;28;20223;-90
2023/07/10 12:40:15;;;;;;;6.43;4.07;;;33.10;85.70;;;;;;4971624;28;20235;-89
2023/07/10 12:42:44;;;;;;;8.25;4.05;;;33.20;82.70;;;;;;4971068;28;20220;-89
2023/07/10 12:45:18;;;;;;;4.72;3.90;;;33.20;81.40;;;;;;4973873;28;20294;-89
2023/07/10 12:47:53;;;;;;;4.07;3.67;;;33.00;79.30;;;;;;4972482;28;20203;-89
2023/07/10 12:50:31;;;;;;;51.88;7.15;;;32.90;83.20;;;;;;4972258;28;20257;-90
2023/07/10 12:52:58;;;;;;;7.32;4.07;;;33.00;82.50;;;;;;4970899;28;20662;-90
2023/07/10 12:55:30;;;;;;;4.45;3.40;;;33.30;79.50;;;;;;4971096;28;20741;-89
2023/07/10 12:57:59;;;;;;;6.00;3.95;;;33.60;76.00;;;;;;4975985;28;20199;-90
2023/07/10 13:00:40;;;;;;;5.57;3.80;;;33.60;73.50;;;;;;4968804;28;20282;-89
2023/07/10 13:03:20;;;;;;;8.20;3.80;;;33.30;70.70;;;;;;4976358;28;20251;-89
2023/07/10 13:05:52;;;;;;;9.35;4.25;;;33.20;72.30;;;;;;4976210;28;20263;-90
2023/07/10 13:08:19;;;;;;;5.43;4.05;;;33.30;74.40;;;;;;4980875;28;20667;-88
2023/07/10 13:10:47;;;;;;;6.60;3.88;;;33.30;70.20;;;;;;4975200;28;20196;-91
2023/07/10 13:13:16;;;;;;;6.30;4.03;;;33.20;68.50;;;;;;4985982;28;20676;-90
2023/07/10 13:15:43;;;;;;;7.57;4.25;;;33.10;70.20;;;;;;4975758;28;20203;-89
2023/07/10 13:18:22;;;;;;;6.97;3.88;;;33.00;67.80;;;;;;4984264;28;20223;-88
2023/07/10 13:20:49;;;;;;;7.32;3.83;;;32.90;69.70;;;;;;4975884;28;20574;-90
2023/07/10 13:23:17;;;;;;;8.07;4.35;;;33.00;69.80;;;;;;4974728;28;20243;-90
2023/07/10 13:25:44;;;;;;;5.03;3.92;;;33.30;71.50;;;;;;4976003;28;20196;-90
2023/07/10 13:28:19;;;;;;;6.32;3.88;;;33.70;70.10;;;;;;4976026;28;20247;-89
2023/07/10 13:30:46;;;;;;;10.13;4.05;;;34.00;69.70;;;;;;4976325;28;20207;-90
2023/07/10 13:33:17;;;;;;;5.35;4.57;;;34.10;62.60;;;;;;4981534;28;20211;-89
2023/07/10 13:35:47;;;;;;;7.03;4.53;;;34.10;60.10;;;;;;4980151;28;20250;-90
2023/07/10 13:38:14;;;;;;;6.47;4.50;;;33.80;57.70;;;;;;4988001;28;20254;-90
2023/07/10 13:40:41;;;;;;;5.70;4.20;;;33.70;58.10;;;;;;4976101;28;20195;-90
2023/07/10 13:43:14;;;;;;;4.68;4.22;;;33.60;56.60;;;;;;4977943;28;20633;-89
2023/07/10 13:45:42;;;;;;;4.75;4.15;;;33.50;56.10;;;;;;4974212;28;20204;-90
2023/07/10 13:48:13;;;;;;;5.50;4.20;;;33.50;56.70;;;;;;4976009;28;20235;-91
2023/07/10 13:50:42;;;;;;;6.43;4.20;;;33.20;52.70;;;;;;4972735;28;20234;-90
2023/07/10 13:53:13;;;;;;;5.90;4.47;;;33.10;51.90;;;;;;4975976;28;20250;-90
2023/07/10 13:55:41;;;;;;;4.85;4.30;;;33.10;54.00;;;;;;4976256;28;20262;-90
2023/07/10 13:58:17;;;;;;;4.60;4.10;;;33.20;52.40;;;;;;4975536;28;20211;-91
2023/07/10 14:00:45;;;;;;;4.43;4.03;;;33.20;51.40;;;;;;4976328;28;20200;-92
2023/07/10 14:03:13;;;;;;;6.75;3.97;;;33.20;52.30;;;;;;4975093;28;20800;-90
2023/07/10 14:05:41;;;;;;;4.40;3.92;;;33.40;49.80;;;;;;4976025;28;20667;-90
2023/07/10 14:08:23;;;;;;;5.68;4.20;;;33.60;49.10;;;;;;4975357;28;20227;-90
2023/07/10 14:10:51;;;;;;;7.15;4.78;;;33.80;50.30;;;;;;4970303;28;20227;-90
2023/07/10 14:13:18;;;;;;;5.20;4.40;;;33.80;48.60;;;;;;4974636;28;20227;-90
2023/07/10 14:15:46;;;;;;;8.40;4.22;;;33.70;48.00;;;;;;4973834;28;20196;-90
2023/07/10 14:18:15;;;;;;;11.25;5.10;;;33.50;49.50;;;;;;4975462;28;20204;-89
2023/07/10 14:20:43;;;;;;;5.50;4.10;;;33.20;49.00;;;;;;4985973;28;20204;-91
2023/07/10 14:23:15;;;;;;;18.77;5.20;;;33.00;49.00;;;;;;4974977;28;20327;-90
2023/07/10 14:25:43;;;;;;;5.63;4.32;;;32.80;46.90;;;;;;4975942;28;20667;-91
2023/07/10 14:28:12;;;;;;;10.23;4.30;;;32.60;48.00;;;;;;4975575;28;20258;-91
2023/07/10 14:30:39;;;;;;;6.32;4.38;;;32.60;49.40;;;;;;4975353;28;20227;-91
2023/07/10 14:33:05;;;;;;;5.40;4.25;;;32.60;49.30;;;;;;4975644;28;20199;-90
2023/07/10 14:35:32;;;;;;;6.03;4.50;;;32.60;48.10;;;;;;4975234;28;20200;-91
2023/07/10 14:37:59;;;;;;;5.50;4.07;;;32.70;47.10;;;;;;4974631;28;20569;-90
2023/07/10 14:40:28;;;;;;;9.25;4.95;;;32.70;50.30;;;;;;4975429;28;20203;-91
2023/07/10 14:42:54;;;;;;;6.95;4.70;;;32.70;46.00;;;;;;4967174;28;20216;-90
2023/07/10 14:45:21;;;;;;;8.23;5.22;;;32.60;48.80;;;;;;4974568;28;20670;-90
2023/07/10 14:47:48;;;;;;;5.95;4.47;;;32.70;47.90;;;;;;4968261;28;20266;-90
2023/07/10 14:50:19;;;;;;;8.05;4.75;;;33.00;51.20;;;;;;4974827;28;20663;-89
2023/07/10 14:52:46;;;;;;;9.50;5.30;;;33.40;52.50;;;;;;4970026;28;20231;-90
2023/07/10 14:55:16;;;;;;;9.02;4.97;;;33.70;52.90;;;;;;4973908;28;20234;-90
2023/07/10 14:57:45;;;;;;;6.10;4.72;;;33.90;51.90;;;;;;4970171;28;20196;-90
2023/07/10 15:00:22;;;;;;;6.47;4.40;;;34.00;49.00;;;;;;4973520;28;20212;-89
2023/07/10 15:02:50;;;;;;;7.25;4.60;;;33.90;46.50;;;;;;4971875;28;20219;-90
2023/07/10 15:05:17;;;;;;;5.78;4.30;;;33.60;45.50;;;;;;4973883;28;20608;-90
2023/07/10 15:07:45;;;;;;;5.95;4.88;;;33.40;44.90;;;;;;4974586;28;20737;-89
2023/07/10 15:10:21;;;;;;;6.47;4.93;;;33.20;44.10;;;;;;4973413;28;20207;-89
2023/07/10 15:12:50;;;;;;;7.55;4.85;;;32.90;68.60;;;;;;4974275;28;20195;-90
2023/07/10 15:15:19;;;;;;;6.57;4.95;;;32.70;45.00;;;;;;4965663;28;20724;-91
2023/07/10 15:17:47;;;;;;;7.53;4.68;;;32.60;45.30;;;;;;4979410;28;20203;-90
2023/07/10 15:20:17;;;;;;;7.90;5.15;;;32.40;44.70;;;;;;4973909;28;20231;-91
2023/07/10 15:22:44;;;;;;;8.77;4.68;;;32.30;46.30;;;;;;4970091;28;20334;-90